»·PEaware :: N44GB KDLO-KSBP

N44GB :: KDLO-KSBP

FLIGHT INFORMATION

Flight Status: Arrived
Operator: Privately registered:
United States
More flights under this callsign
Pilot: Kevin G. (10950)
Aircraft: Unknown
(EPIC)
More flights by this aircraft type
Origin: KDLO Delano Mun
United States
Destination: KSBP San Luis Co Regl
United States
More flights between these airports :: More routes between these airports
Route: Visual
File this flight plan on PilotEdge
Remarks: VFR to San Luis
Altitude:
(Current/Filed)
6,500ft
Speed:
(Current/Filed)
180kts
Departed: 09-Jan-17 07:47 PM
Arrived: 09-Jan-17 08:22 PM
Distance/Time
Traveled:
75nm/0:35
Distance/Time
To Go:
Arrived

Flight Plot

Page will automatically refresh every two minutes.

Flight plan parsing failed; only flown route is shown


Map Options




Map Legend


Flown Route
Filed Route
Departure Airport
Arrival Airport
Navaid (VOR, NDB)
Fix

Horizontal Profiles

Position Reports

Time Latitude Longitude Heading Altitude Ground
Speed
09-Jan-17 19:38 35.745554 -119.238694 339 317ft 0kts
09-Jan-17 19:39 35.745554 -119.238694 339 317ft 0kts
09-Jan-17 19:40 35.745647 -119.238714 8 317ft 4kts
09-Jan-17 19:41 35.744641 -119.237944 174 317ft 0kts
09-Jan-17 19:42 35.742869 -119.236898 158 317ft 13kts
09-Jan-17 19:43 35.739333 -119.235202 153 317ft 10kts
09-Jan-17 19:44 35.738619 -119.234032 118 317ft 0kts
09-Jan-17 19:45 35.738757 -119.233222 338 317ft 0kts
09-Jan-17 19:46 35.738820 -119.233255 336 317ft 4kts
09-Jan-17 19:47 35.757064 -119.243233 333 1060ft 120kts
09-Jan-17 19:48 35.761935 -119.285661 254 2227ft 160kts
09-Jan-17 19:49 35.735757 -119.339114 221 2283ft 195kts
09-Jan-17 19:50 35.712686 -119.385358 242 2529ft 182kts
09-Jan-17 19:51 35.690384 -119.435944 237 3357ft 164kts
09-Jan-17 19:52 35.647028 -119.439625 174 4406ft 170kts
09-Jan-17 19:53 35.590923 -119.430700 174 5782ft 178kts
09-Jan-17 19:54 35.549425 -119.423051 174 6499ft 189kts
09-Jan-17 19:55 35.498484 -119.428526 218 6509ft 192kts
09-Jan-17 19:56 35.461256 -119.460250 219 6505ft 199kts
09-Jan-17 19:57 35.418896 -119.497360 219 6503ft 204kts
09-Jan-17 19:58 35.368391 -119.541937 219 6501ft 208kts
09-Jan-17 19:59 35.329111 -119.576630 219 6503ft 210kts
09-Jan-17 20:00 35.281591 -119.618641 214 6518ft 210kts
09-Jan-17 20:01 35.249203 -119.671712 248 6511ft 202kts
09-Jan-17 20:02 35.233705 -119.735062 254 6520ft 191kts
09-Jan-17 20:03 35.219002 -119.796422 255 6523ft 186kts
09-Jan-17 20:04 35.204474 -119.856961 255 6520ft 185kts
09-Jan-17 20:05 35.189991 -119.917174 256 6516ft 184kts
09-Jan-17 20:06 35.176147 -119.974566 257 6512ft 168kts
09-Jan-17 20:07 35.163412 -120.027307 257 6512ft 157kts
09-Jan-17 20:08 35.151258 -120.077567 257 6130ft 157kts
09-Jan-17 20:09 35.138898 -120.128543 257 5383ft 157kts
09-Jan-17 20:10 35.126671 -120.178901 256 4237ft 156kts
09-Jan-17 20:11 35.121954 -120.227230 289 3694ft 134kts
09-Jan-17 20:12 35.136073 -120.280446 289 3253ft 165kts
09-Jan-17 20:13 35.149098 -120.328163 290 3011ft 151kts
09-Jan-17 20:14 35.157174 -120.377152 282 3013ft 153kts
09-Jan-17 20:15 35.157293 -120.430181 271 3016ft 169kts
09-Jan-17 20:16 35.158601 -120.477484 271 3010ft 124kts
09-Jan-17 20:17 35.170248 -120.514377 296 1923ft 129kts
09-Jan-17 20:18 35.186193 -120.550898 302 1714ft 121kts
09-Jan-17 20:19 35.203068 -120.580201 302 1187ft 103kts
09-Jan-17 20:20 35.218133 -120.607827 303 696ft 106kts
09-Jan-17 20:21 35.233266 -120.633894 304 235ft 90kts
09-Jan-17 20:22 35.237438 -120.639914 9 215ft 0kts
09-Jan-17 20:23 35.237438 -120.639914 9 215ft 0kts
09-Jan-17 20:24 35.237535 -120.639395 127 215ft 11kts
09-Jan-17 20:25 35.237855 -120.637314 330 215ft 6kts
09-Jan-17 20:26 35.237944 -120.637797 269 215ft 0kts
09-Jan-17 20:27 35.237944 -120.637797 269 215ft 0kts
09-Jan-17 20:28 35.237944 -120.637797 269 215ft 0kts
09-Jan-17 20:29 35.237944 -120.637797 269 215ft 0kts
09-Jan-17 20:30 35.237944 -120.637797 269 215ft 0kts
09-Jan-17 20:31 35.237944 -120.637797 269 215ft 0kts
09-Jan-17 20:32 35.237944 -120.637797 269 215ft 0kts
09-Jan-17 20:33 35.237944 -120.637797 269 215ft 0kts
09-Jan-17 20:34 35.237944 -120.637797 269 215ft 0kts
09-Jan-17 20:35 35.237944 -120.637797 269 215ft 0kts
09-Jan-17 20:36 35.237944 -120.637797 269 215ft 0kts

Navigation Log

Ident Type
Flight plan parsing failed, navigation log unavailable